This is the latest recevied weather packets stored in our database for station/object IZ1HMT-3. If no packets are shown the sender has not sent any weather packets the latest 10 day(s).
| Time | Temp. | Humidity | Pressure | Rain* | Wind** | Luminosity | Snow |
|---|---|---|---|---|---|---|---|
| 1787658988 | 32.22° C | 38% | 1011.5 hPa | - | - | - | - |
| 1787658384 | 32.22° C | 38% | 1011.5 hPa | - | - | - | - |
| 1787657779 | 31.67° C | 39% | 1011.6 hPa | - | - | - | - |
| 1787656569 | 31.67° C | 39% | 1011.5 hPa | - | - | - | - |
| 1787655964 | 32.22° C | 38% | 1011.5 hPa | - | - | - | - |
| 1787655360 | 31.67° C | 39% | 1011.5 hPa | - | - | - | - |
| 1787654753 | 31.67° C | 38% | 1011.7 hPa | - | - | - | - |
| 1787654148 | 32.22° C | 38% | 1011.6 hPa | - | - | - | - |
| 1787652938 | 32.78° C | 37% | 1011.6 hPa | - | - | - | - |
| 1787652333 | 33.33° C | 35% | 1011.5 hPa | - | - | - | - |
| 1787651728 | 35.56° C | 32% | 1011.3 hPa | - | - | - | - |
| 1787650519 | 39.44° C | 27% | 1011.1 hPa | - | - | - | - |
| 1787649915 | 42.78° C | 24% | 1010.9 hPa | - | - | - | - |
| 1787649310 | 43.89° C | 22% | 1010.7 hPa | - | - | - | - |
| 1787648102 | 40.56° C | 33% | 1010.7 hPa | - | - | - | - |
| 1787647498 | 38.33° C | 38% | 1010.8 hPa | - | - | - | - |
| 1787646894 | 36.67° C | 41% | 1010.6 hPa | - | - | - | - |
| 1787645684 | 35° C | 44% | 1010.7 hPa | - | - | - | - |
| 1787645080 | 33.89° C | 46% | 1010.7 hPa | - | - | - | - |
| 1787644476 | 33.33° C | 46% | 1010.5 hPa | - | - | - | - |
| 1787643872 | 32.22° C | 50% | 1010.6 hPa | - | - | - | - |
| 1787642663 | 31.11° C | 54% | 1010.6 hPa | - | - | - | - |
| 1787640850 | 27.78° C | 67% | 1010.5 hPa | - | - | - | - |
| 1787633384 | 20° C | 78% | 1010.7 hPa | - | - | - | - |
| 1787632176 | 20° C | 79% | 1010.5 hPa | - | - | - | - |
* Rain since midnight (hover to see other rain measurements)
** Current wind speed in m/s (hover to see current wind gust speed)